sensor_id;sensor_type;location;lat;lon;timestamp;pressure;altitude;pressure_sealevel;temperature;humidity
81931;BME280;71395;43.488;1.472;2024-02-28T00:02:09;100069.22;;;8.04;77.58
81931;BME280;71395;43.488;1.472;2024-02-28T00:04:35;100044.09;;;7.89;77.37
81931;BME280;71395;43.488;1.472;2024-02-28T00:07:00;100072.47;;;8.07;78.02
81931;BME280;71395;43.488;1.472;2024-02-28T00:09:26;100066.31;;;8.06;78.45
81931;BME280;71395;43.488;1.472;2024-02-28T00:11:52;100082.19;;;8.13;78.29
81931;BME280;71395;43.488;1.472;2024-02-28T00:14:17;100080.31;;;8.13;78.30
81931;BME280;71395;43.488;1.472;2024-02-28T00:16:44;100090.38;;;8.23;78.32
81931;BME280;71395;43.488;1.472;2024-02-28T00:19:10;100107.53;;;8.27;77.06
81931;BME280;71395;43.488;1.472;2024-02-28T00:21:37;100089.91;;;8.26;77.35
81931;BME280;71395;43.488;1.472;2024-02-28T00:24:03;100079.03;;;8.16;76.96
81931;BME280;71395;43.488;1.472;2024-02-28T00:26:29;100097.66;;;8.27;77.54
81931;BME280;71395;43.488;1.472;2024-02-28T00:28:55;100099.19;;;8.23;76.84
81931;BME280;71395;43.488;1.472;2024-02-28T00:31:20;100099.44;;;8.22;77.81
81931;BME280;71395;43.488;1.472;2024-02-28T00:33:47;100114.50;;;8.28;77.04
81931;BME280;71395;43.488;1.472;2024-02-28T00:36:13;100115.31;;;8.28;77.00
81931;BME280;71395;43.488;1.472;2024-02-28T00:38:38;100115.31;;;8.28;77.07
81931;BME280;71395;43.488;1.472;2024-02-28T00:41:04;100106.75;;;8.26;76.67
81931;BME280;71395;43.488;1.472;2024-02-28T00:43:29;100125.53;;;8.32;77.79
81931;BME280;71395;43.488;1.472;2024-02-28T00:45:55;100105.94;;;8.26;77.52
81931;BME280;71395;43.488;1.472;2024-02-28T00:48:22;100094.22;;;8.15;76.77
81931;BME280;71395;43.488;1.472;2024-02-28T00:50:47;100111.13;;;8.33;77.40
81931;BME280;71395;43.488;1.472;2024-02-28T00:53:13;100101.53;;;8.20;76.77
81931;BME280;71395;43.488;1.472;2024-02-28T00:55:38;100103.97;;;8.21;77.11
81931;BME280;71395;43.488;1.472;2024-02-28T00:58:04;100113.69;;;8.27;77.68
81931;BME280;71395;43.488;1.472;2024-02-28T01:00:30;100100.25;;;8.22;76.36
81931;BME280;71395;43.488;1.472;2024-02-28T01:02:55;100098.03;;;8.19;76.63
81931;BME280;71395;43.488;1.472;2024-02-28T01:05:21;100091.56;;;8.15;76.33
81931;BME280;71395;43.488;1.472;2024-02-28T01:07:47;100093.50;;;8.20;77.53
81931;BME280;71395;43.488;1.472;2024-02-28T01:10:12;100098.03;;;8.19;77.80
81931;BME280;71395;43.488;1.472;2024-02-28T01:12:38;100096.44;;;8.18;77.03
81931;BME280;71395;43.488;1.472;2024-02-28T01:15:04;100099.19;;;8.23;77.19
81931;BME280;71395;43.488;1.472;2024-02-28T01:17:29;100100.50;;;8.21;77.28
81931;BME280;71395;43.488;1.472;2024-02-28T01:19:57;100091.09;;;8.18;76.55
81931;BME280;71395;43.488;1.472;2024-02-28T01:22:22;100102.75;;;8.29;76.58
81931;BME280;71395;43.488;1.472;2024-02-28T01:24:48;100104.63;;;8.28;77.28
81931;BME280;71395;43.488;1.472;2024-02-28T01:27:13;100105.78;;;8.33;77.29
81931;BME280;71395;43.488;1.472;2024-02-28T01:29:39;100101.88;;;8.23;77.17
81931;BME280;71395;43.488;1.472;2024-02-28T01:32:05;100100.25;;;8.22;76.27
81931;BME280;71395;43.488;1.472;2024-02-28T01:34:30;100090.38;;;8.23;76.38
81931;BME280;71395;43.488;1.472;2024-02-28T01:36:56;100110.78;;;8.29;76.02
81931;BME280;71395;43.488;1.472;2024-02-28T01:39:22;100116.13;;;8.29;76.59
81931;BME280;71395;43.488;1.472;2024-02-28T01:41:54;100117.88;;;8.23;76.21
81931;BME280;71395;43.488;1.472;2024-02-28T01:44:21;100128.56;;;8.23;76.91
81931;BME280;71395;43.488;1.472;2024-02-28T01:46:47;100110.59;;;8.19;76.68
81931;BME280;71395;43.488;1.472;2024-02-28T01:49:13;100106.88;;;8.20;76.39
81931;BME280;71395;43.488;1.472;2024-02-28T01:51:41;100129.72;;;8.27;76.84
81931;BME280;71395;43.488;1.472;2024-02-28T01:54:07;100121.63;;;8.22;77.21
81931;BME280;71395;43.488;1.472;2024-02-28T01:56:34;100113.97;;;8.14;76.88
81931;BME280;71395;43.488;1.472;2024-02-28T01:59:00;100112.53;;;8.23;76.57
81931;BME280;71395;43.488;1.472;2024-02-28T02:01:27;100112.28;;;8.25;76.74
81931;BME280;71395;43.488;1.472;2024-02-28T02:03:54;100118.56;;;8.31;76.82
81931;BME280;71395;43.488;1.472;2024-02-28T02:06:20;100109.88;;;8.23;76.17
81931;BME280;71395;43.488;1.472;2024-02-28T02:08:46;100120.56;;;8.23;76.97
81931;BME280;71395;43.488;1.472;2024-02-28T02:11:14;100104.25;;;8.08;76.21
81931;BME280;71395;43.488;1.472;2024-02-28T02:13:50;100115.59;;;8.15;76.45
81931;BME280;71395;43.488;1.472;2024-02-28T02:16:18;100134.38;;;8.20;77.13
81931;BME280;71395;43.488;1.472;2024-02-28T02:18:43;100127.91;;;8.16;77.06
81931;BME280;71395;43.488;1.472;2024-02-28T02:21:11;100116.56;;;8.09;76.04
81931;BME280;71395;43.488;1.472;2024-02-28T02:23:38;100131.84;;;8.14;76.92
81931;BME280;71395;43.488;1.472;2024-02-28T02:26:07;100127.22;;;8.09;77.01
81931;BME280;71395;43.488;1.472;2024-02-28T02:28:33;100118.66;;;8.07;76.91
81931;BME280;71395;43.488;1.472;2024-02-28T02:30:59;100124.81;;;8.08;77.06
81931;BME280;71395;43.488;1.472;2024-02-28T02:33:24;100112.16;;;8.03;76.22
81931;BME280;71395;43.488;1.472;2024-02-28T02:35:51;100117.84;;;8.07;76.28
81931;BME280;71395;43.488;1.472;2024-02-28T02:38:17;100114.69;;;8.10;77.27
81931;BME280;71395;43.488;1.472;2024-02-28T02:40:43;100113.66;;;8.11;76.03
81931;BME280;71395;43.488;1.472;2024-02-28T02:43:08;100106.69;;;8.10;76.25
81931;BME280;71395;43.488;1.472;2024-02-28T02:45:34;100119.31;;;8.14;76.28
81931;BME280;71395;43.488;1.472;2024-02-28T02:48:00;100118.34;;;8.20;75.95
81931;BME280;71395;43.488;1.472;2024-02-28T02:50:26;100128.81;;;8.22;76.55
81931;BME280;71395;43.488;1.472;2024-02-28T02:52:51;100128.47;;;8.18;76.23
81931;BME280;71395;43.488;1.472;2024-02-28T02:55:17;100119.81;;;8.11;75.52
81931;BME280;71395;43.488;1.472;2024-02-28T02:57:43;100131.63;;;8.15;75.93
81931;BME280;71395;43.488;1.472;2024-02-28T03:00:09;100131.72;;;8.20;76.07
81931;BME280;71395;43.488;1.472;2024-02-28T03:02:35;100117.59;;;8.08;75.49
81931;BME280;71395;43.488;1.472;2024-02-28T03:05:04;100127.22;;;8.09;76.25
81931;BME280;71395;43.488;1.472;2024-02-28T03:07:30;100138.00;;;8.14;75.85
81931;BME280;71395;43.488;1.472;2024-02-28T03:09:55;100140.69;;;8.14;76.52
81931;BME280;71395;43.488;1.472;2024-02-28T03:12:21;100140.47;;;8.16;76.40
81931;BME280;71395;43.488;1.472;2024-02-28T03:14:48;100136.28;;;8.08;75.56
81931;BME280;71395;43.488;1.472;2024-02-28T03:17:13;100148.13;;;8.12;76.23
81931;BME280;71395;43.488;1.472;2024-02-28T03:19:41;100150.22;;;8.10;76.02
81931;BME280;71395;43.488;1.472;2024-02-28T03:22:06;100146.97;;;8.08;76.48
81931;BME280;71395;43.488;1.472;2024-02-28T03:24:32;100149.41;;;8.10;76.08
81931;BME280;71395;43.488;1.472;2024-02-28T03:27:01;100152.31;;;8.08;75.60
81931;BME280;71395;43.488;1.472;2024-02-28T03:29:27;100163.66;;;8.15;76.41
81931;BME280;71395;43.488;1.472;2024-02-28T03:31:53;100155.00;;;8.08;75.73
81931;BME280;71395;43.488;1.472;2024-02-28T03:34:18;100163.66;;;8.15;75.81
81931;BME280;71395;43.488;1.472;2024-02-28T03:36:44;100147.78;;;8.09;75.58
81931;BME280;71395;43.488;1.472;2024-02-28T03:39:10;100172.81;;;8.19;76.19
81931;BME280;71395;43.488;1.472;2024-02-28T03:41:36;100165.22;;;8.11;75.44
81931;BME280;71395;43.488;1.472;2024-02-28T03:44:01;100139.94;;;7.90;75.89
81931;BME280;71395;43.488;1.472;2024-02-28T03:46:27;100173.13;;;8.06;75.80
81931;BME280;71395;43.488;1.472;2024-02-28T03:48:52;100181.44;;;8.10;75.13
81931;BME280;71395;43.488;1.472;2024-02-28T03:51:18;100181.69;;;8.08;75.78
81931;BME280;71395;43.488;1.472;2024-02-28T03:53:44;100174.63;;;8.02;74.87
81931;BME280;71395;43.488;1.472;2024-02-28T03:56:09;100166.03;;;8.00;76.00
81931;BME280;71395;43.488;1.472;2024-02-28T03:58:35;100180.53;;;8.04;75.02
81931;BME280;71395;43.488;1.472;2024-02-28T04:01:00;100172.66;;;7.97;76.10
81931;BME280;71395;43.488;1.472;2024-02-28T04:03:26;100169.75;;;7.99;75.97
81931;BME280;71395;43.488;1.472;2024-02-28T04:05:52;100170.81;;;7.98;75.15
81931;BME280;71395;43.488;1.472;2024-02-28T04:08:17;100178.09;;;8.02;75.21
81931;BME280;71395;43.488;1.472;2024-02-28T04:10:43;100178.81;;;7.98;74.94
81931;BME280;71395;43.488;1.472;2024-02-28T04:13:09;100190.16;;;8.05;74.91
81931;BME280;71395;43.488;1.472;2024-02-28T04:15:34;100162.44;;;7.94;74.60
81931;BME280;71395;43.488;1.472;2024-02-28T04:18:00;100182.75;;;8.07;75.12
81931;BME280;71395;43.488;1.472;2024-02-28T04:20:26;100183.22;;;8.04;75.16
81931;BME280;71395;43.488;1.472;2024-02-28T04:22:52;100165.81;;;7.90;74.58
81931;BME280;71395;43.488;1.472;2024-02-28T04:25:17;100194.47;;;8.06;74.68
81931;BME280;71395;43.488;1.472;2024-02-28T04:27:43;100183.69;;;8.01;74.54
81931;BME280;71395;43.488;1.472;2024-02-28T04:30:09;100199.13;;;7.99;75.05
81931;BME280;71395;43.488;1.472;2024-02-28T04:32:35;100199.59;;;7.96;75.57
81931;BME280;71395;43.488;1.472;2024-02-28T04:35:01;100196.34;;;7.94;75.23
81931;BME280;71395;43.488;1.472;2024-02-28T04:37:48;100208.28;;;8.03;75.05
81931;BME280;71395;43.488;1.472;2024-02-28T04:40:14;100199.00;;;7.94;74.91
81931;BME280;71395;43.488;1.472;2024-02-28T04:42:41;100205.50;;;7.98;75.21
81931;BME280;71395;43.488;1.472;2024-02-28T04:45:07;100212.72;;;7.97;74.95
81931;BME280;71395;43.488;1.472;2024-02-28T04:47:33;100203.69;;;7.87;74.80
81931;BME280;71395;43.488;1.472;2024-02-28T04:49:58;100202.53;;;7.83;75.23
81931;BME280;71395;43.488;1.472;2024-02-28T04:52:24;100219.31;;;7.95;74.76
81931;BME280;71395;43.488;1.472;2024-02-28T04:54:53;100230.59;;;7.97;74.78
81931;BME280;71395;43.488;1.472;2024-02-28T04:57:18;100187.66;;;7.75;74.99
81931;BME280;71395;43.488;1.472;2024-02-28T04:59:44;100220.47;;;7.99;74.99
81931;BME280;71395;43.488;1.472;2024-02-28T05:02:11;100213.97;;;7.95;75.01
81931;BME280;71395;43.488;1.472;2024-02-28T05:04:36;100211.09;;;7.96;74.06
81931;BME280;71395;43.488;1.472;2024-02-28T05:07:02;100222.09;;;8.00;74.31
81931;BME280;71395;43.488;1.472;2024-02-28T05:09:28;100204.84;;;7.91;74.85
81931;BME280;71395;43.488;1.472;2024-02-28T05:11:53;100214.56;;;7.97;75.07
81931;BME280;71395;43.488;1.472;2024-02-28T05:14:19;100230.59;;;7.97;74.63
81931;BME280;71395;43.488;1.472;2024-02-28T05:16:46;100224.91;;;7.93;74.29
81931;BME280;71395;43.488;1.472;2024-02-28T05:19:12;100228.03;;;7.90;74.55
81931;BME280;71395;43.488;1.472;2024-02-28T05:21:45;100227.81;;;7.92;74.19
81931;BME280;71395;43.488;1.472;2024-02-28T05:24:11;100222.94;;;7.89;74.97
81931;BME280;71395;43.488;1.472;2024-02-28T05:26:37;100216.44;;;7.85;74.12
81931;BME280;71395;43.488;1.472;2024-02-28T05:29:04;100237.44;;;7.93;75.11
81931;BME280;71395;43.488;1.472;2024-02-28T05:31:30;100219.34;;;7.83;75.16
81931;BME280;71395;43.488;1.472;2024-02-28T05:33:58;100235.72;;;7.87;74.04
81931;BME280;71395;43.488;1.472;2024-02-28T05:36:25;100231.19;;;7.75;74.13
81931;BME280;71395;43.488;1.472;2024-02-28T05:38:51;100237.09;;;7.77;74.40
81931;BME280;71395;43.488;1.472;2024-02-28T05:41:17;100242.44;;;7.77;74.64
81931;BME280;71395;43.488;1.472;2024-02-28T05:43:43;100242.44;;;7.77;74.38
81931;BME280;71395;43.488;1.472;2024-02-28T05:46:09;100245.47;;;7.69;74.45
81931;BME280;71395;43.488;1.472;2024-02-28T05:48:35;100248.72;;;7.71;74.67
81931;BME280;71395;43.488;1.472;2024-02-28T05:51:01;100255.44;;;7.74;74.74
81931;BME280;71395;43.488;1.472;2024-02-28T05:53:28;100261.38;;;7.76;75.26
81931;BME280;71395;43.488;1.472;2024-02-28T05:55:58;100254.28;;;7.70;74.24
81931;BME280;71395;43.488;1.472;2024-02-28T05:58:23;100259.72;;;7.75;74.89
81931;BME280;71395;43.488;1.472;2024-02-28T06:00:51;100256.34;;;7.80;74.16
81931;BME280;71395;43.488;1.472;2024-02-28T06:03:17;100260.66;;;7.81;74.57
81931;BME280;71395;43.488;1.472;2024-02-28T06:05:43;100268.31;;;7.77;74.55
81931;BME280;71395;43.488;1.472;2024-02-28T06:08:08;100267.97;;;7.73;75.03
81931;BME280;71395;43.488;1.472;2024-02-28T06:10:34;100273.75;;;7.70;74.98
81931;BME280;71395;43.488;1.472;2024-02-28T06:12:59;100266.94;;;7.63;74.71
81931;BME280;71395;43.488;1.472;2024-02-28T06:15:26;100282.38;;;7.72;74.91
81931;BME280;71395;43.488;1.472;2024-02-28T06:17:52;100285.84;;;7.73;74.52
81931;BME280;71395;43.488;1.472;2024-02-28T06:20:17;100272.94;;;7.70;73.88
81931;BME280;71395;43.488;1.472;2024-02-28T06:22:43;100277.38;;;7.76;74.48
81931;BME280;71395;43.488;1.472;2024-02-28T06:25:09;100297.00;;;7.82;74.67
81931;BME280;71395;43.488;1.472;2024-02-28T06:27:43;100288.88;;;7.76;74.21
81931;BME280;71395;43.488;1.472;2024-02-28T06:30:09;100288.75;;;7.71;74.38
81931;BME280;71395;43.488;1.472;2024-02-28T06:32:35;100303.22;;;7.75;74.04
81931;BME280;71395;43.488;1.472;2024-02-28T06:35:01;100292.81;;;7.62;73.98
81931;BME280;71395;43.488;1.472;2024-02-28T06:37:26;100298.13;;;7.62;74.48
81931;BME280;71395;43.488;1.472;2024-02-28T06:39:53;100296.28;;;7.63;74.57
81931;BME280;71395;43.488;1.472;2024-02-28T06:42:18;100295.69;;;7.61;74.83
81931;BME280;71395;43.488;1.472;2024-02-28T06:44:44;100290.47;;;7.54;75.05
81931;BME280;71395;43.488;1.472;2024-02-28T06:47:09;100286.41;;;7.51;74.70
81931;BME280;71395;43.488;1.472;2024-02-28T06:49:35;100311.13;;;7.70;74.47
81931;BME280;71395;43.488;1.472;2024-02-28T06:52:01;100316.47;;;7.70;74.83
81931;BME280;71395;43.488;1.472;2024-02-28T06:54:27;100313.22;;;7.68;74.59
81931;BME280;71395;43.488;1.472;2024-02-28T06:56:53;100286.41;;;7.51;74.86
81931;BME280;71395;43.488;1.472;2024-02-28T06:59:19;100321.69;;;7.65;74.56
81931;BME280;71395;43.488;1.472;2024-02-28T07:01:44;100320.75;;;7.60;74.84
81931;BME280;71395;43.488;1.472;2024-02-28T07:04:10;100332.22;;;7.60;74.50
81931;BME280;71395;43.488;1.472;2024-02-28T07:06:36;100329.34;;;7.62;74.65
81931;BME280;71395;43.488;1.472;2024-02-28T07:09:02;100340.22;;;7.60;74.69
81931;BME280;71395;43.488;1.472;2024-02-28T07:11:28;100344.56;;;7.61;74.27
81931;BME280;71395;43.488;1.472;2024-02-28T07:13:53;100329.56;;;7.60;75.07
81931;BME280;71395;43.488;1.472;2024-02-28T07:16:19;100342.44;;;7.63;74.85
81931;BME280;71395;43.488;1.472;2024-02-28T07:18:44;100343.63;;;7.67;74.58
81931;BME280;71395;43.488;1.472;2024-02-28T07:21:10;100329.56;;;7.60;74.44
81931;BME280;71395;43.488;1.472;2024-02-28T07:23:39;100346.16;;;7.62;74.19
81931;BME280;71395;43.488;1.472;2024-02-28T07:26:06;100350.56;;;7.68;74.26
81931;BME280;71395;43.488;1.472;2024-02-28T07:28:31;100367.75;;;7.72;74.31
81931;BME280;71395;43.488;1.472;2024-02-28T07:30:57;100358.34;;;7.70;74.73
81931;BME280;71395;43.488;1.472;2024-02-28T07:33:22;100361.38;;;7.73;74.80
81931;BME280;71395;43.488;1.472;2024-02-28T07:35:49;100360.00;;;7.71;74.45
81931;BME280;71395;43.488;1.472;2024-02-28T07:38:15;100353.81;;;7.70;74.06
81931;BME280;71395;43.488;1.472;2024-02-28T07:40:43;100349.41;;;7.64;73.83
81931;BME280;71395;43.488;1.472;2024-02-28T07:43:09;100337.56;;;7.60;74.64
81931;BME280;71395;43.488;1.472;2024-02-28T07:45:34;100338.50;;;7.54;74.67
81931;BME280;71395;43.488;1.472;2024-02-28T07:48:00;100357.53;;;7.69;73.77
81931;BME280;71395;43.488;1.472;2024-02-28T07:50:26;100369.72;;;7.65;74.35
81931;BME280;71395;43.488;1.472;2024-02-28T07:52:54;100367.63;;;7.67;74.79
81931;BME280;71395;43.488;1.472;2024-02-28T07:55:20;100370.88;;;7.69;74.16
81931;BME280;71395;43.488;1.472;2024-02-28T07:57:51;100377.63;;;7.72;74.17
81931;BME280;71395;43.488;1.472;2024-02-28T08:00:16;100380.88;;;7.74;74.59
81931;BME280;71395;43.488;1.472;2024-02-28T08:02:44;100379.13;;;7.80;73.78
81931;BME280;71395;43.488;1.472;2024-02-28T08:05:10;100379.63;;;7.76;73.43
81931;BME280;71395;43.488;1.472;2024-02-28T08:07:35;100360.56;;;7.73;73.60
81931;BME280;71395;43.488;1.472;2024-02-28T08:10:02;100377.50;;;7.78;74.30
81931;BME280;71395;43.488;1.472;2024-02-28T08:12:31;100387.25;;;7.85;74.45
81931;BME280;71395;43.488;1.472;2024-02-28T08:14:57;100381.81;;;7.80;74.17
81931;BME280;71395;43.488;1.472;2024-02-28T08:17:23;100387.88;;;7.87;74.30
81931;BME280;71395;43.488;1.472;2024-02-28T08:19:49;100358.25;;;7.76;74.42
81931;BME280;71395;43.488;1.472;2024-02-28T08:22:14;100387.06;;;7.98;74.39
81931;BME280;71395;43.488;1.472;2024-02-28T08:24:40;100354.22;;;7.86;73.52
81931;BME280;71395;43.488;1.472;2024-02-28T08:27:06;100396.34;;;8.07;74.05
81931;BME280;71395;43.488;1.472;2024-02-28T08:29:31;100385.75;;;8.00;73.50
81931;BME280;71395;43.488;1.472;2024-02-28T08:31:58;100397.50;;;7.99;73.41
81931;BME280;71395;43.488;1.472;2024-02-28T08:34:23;100393.44;;;7.97;73.36
81931;BME280;71395;43.488;1.472;2024-02-28T08:36:50;100414.69;;;8.03;73.00
81931;BME280;71395;43.488;1.472;2024-02-28T08:39:17;100401.47;;;7.97;73.24
81931;BME280;71395;43.488;1.472;2024-02-28T08:41:43;100420.50;;;8.12;73.65
81931;BME280;71395;43.488;1.472;2024-02-28T08:44:08;100419.34;;;8.08;73.24
81931;BME280;71395;43.488;1.472;2024-02-28T08:46:34;100407.59;;;7.97;72.96
81931;BME280;71395;43.488;1.472;2024-02-28T08:49:00;100398.66;;;7.92;73.40
81931;BME280;71395;43.488;1.472;2024-02-28T08:51:25;100412.34;;;7.95;72.48
81931;BME280;71395;43.488;1.472;2024-02-28T08:53:51;100410.97;;;7.93;72.58
81931;BME280;71395;43.488;1.472;2024-02-28T08:56:18;100395.41;;;7.90;72.82
81931;BME280;71395;43.488;1.472;2024-02-28T08:58:43;100373.22;;;7.66;72.44
81931;BME280;71395;43.488;1.472;2024-02-28T09:01:13;100387.88;;;7.87;72.50
81931;BME280;71395;43.488;1.472;2024-02-28T09:03:40;100405.63;;;7.93;72.45
81931;BME280;71395;43.488;1.472;2024-02-28T09:06:05;100404.34;;;7.95;72.68
81931;BME280;71395;43.488;1.472;2024-02-28T09:08:31;100373.22;;;7.77;72.97
81931;BME280;71395;43.488;1.472;2024-02-28T09:10:58;100409.34;;;7.92;72.66
81931;BME280;71395;43.488;1.472;2024-02-28T09:13:24;100416.66;;;7.96;72.93
81931;BME280;71395;43.488;1.472;2024-02-28T09:15:49;100412.00;;;7.92;72.85
81931;BME280;71395;43.488;1.472;2024-02-28T09:18:16;100410.41;;;7.91;72.71
81931;BME280;71395;43.488;1.472;2024-02-28T09:20:42;100406.06;;;7.90;72.82
81931;BME280;71395;43.488;1.472;2024-02-28T09:23:07;100411.31;;;7.96;72.39
81931;BME280;71395;43.488;1.472;2024-02-28T09:25:33;100386.25;;;7.97;73.06
81931;BME280;71395;43.488;1.472;2024-02-28T09:28:01;100371.28;;;7.96;72.50
81931;BME280;71395;43.488;1.472;2024-02-28T09:30:27;100370.09;;;8.04;72.05
81931;BME280;71395;43.488;1.472;2024-02-28T09:32:53;100361.53;;;8.02;71.61
81931;BME280;71395;43.488;1.472;2024-02-28T09:35:19;100360.59;;;8.08;73.02
81931;BME280;71395;43.488;1.472;2024-02-28T09:37:45;100365.81;;;8.15;72.14
81931;BME280;71395;43.488;1.472;2024-02-28T09:40:11;100355.94;;;8.15;71.99
81931;BME280;71395;43.488;1.472;2024-02-28T09:42:37;100350.47;;;8.10;71.81
81931;BME280;71395;43.488;1.472;2024-02-28T09:45:03;100338.06;;;8.04;71.69
81931;BME280;71395;43.488;1.472;2024-02-28T09:47:29;100381.88;;;8.38;72.56
81931;BME280;71395;43.488;1.472;2024-02-28T09:49:57;100389.19;;;8.43;72.68
81931;BME280;71395;43.488;1.472;2024-02-28T09:52:26;100383.59;;;8.44;71.89
81931;BME280;71395;43.488;1.472;2024-02-28T09:54:55;100381.28;;;8.48;71.43
81931;BME280;71395;43.488;1.472;2024-02-28T09:57:21;100384.41;;;8.57;71.93
81931;BME280;71395;43.488;1.472;2024-02-28T09:59:55;100374.97;;;8.54;71.95
81931;BME280;71395;43.488;1.472;2024-02-28T10:02:23;100375.78;;;8.54;71.35
81931;BME280;71395;43.488;1.472;2024-02-28T10:04:50;100372.41;;;8.59;71.54
81931;BME280;71395;43.488;1.472;2024-02-28T10:07:16;100389.72;;;8.68;70.67
81931;BME280;71395;43.488;1.472;2024-02-28T10:09:42;100365.47;;;8.58;70.85
81931;BME280;71395;43.488;1.472;2024-02-28T10:12:08;100408.75;;;8.84;70.12
81931;BME280;71395;43.488;1.472;2024-02-28T10:14:34;100402.00;;;8.93;69.99
81931;BME280;71395;43.488;1.472;2024-02-28T10:16:59;100414.59;;;9.09;70.07
81931;BME280;71395;43.488;1.472;2024-02-28T10:19:25;100413.53;;;9.22;70.55
81931;BME280;71395;43.488;1.472;2024-02-28T10:21:51;100406.31;;;9.22;70.15
81931;BME280;71395;43.488;1.472;2024-02-28T10:24:16;100408.13;;;9.33;70.39
81931;BME280;71395;43.488;1.472;2024-02-28T10:26:44;100408.22;;;9.39;68.85
81931;BME280;71395;43.488;1.472;2024-02-28T10:29:09;100413.25;;;9.35;69.77
81931;BME280;71395;43.488;1.472;2024-02-28T10:31:35;100438.56;;;9.44;69.08
81931;BME280;71395;43.488;1.472;2024-02-28T10:34:02;100412.50;;;9.40;68.86
81931;BME280;71395;43.488;1.472;2024-02-28T10:36:32;100414.91;;;9.53;68.52
81931;BME280;71395;43.488;1.472;2024-02-28T10:38:58;100410.22;;;9.60;68.19
81931;BME280;71395;43.488;1.472;2024-02-28T10:41:25;100405.97;;;9.64;67.85
81931;BME280;71395;43.488;1.472;2024-02-28T10:43:51;100420.13;;;9.76;68.16
81931;BME280;71395;43.488;1.472;2024-02-28T10:46:20;100409.50;;;9.81;68.28
81931;BME280;71395;43.488;1.472;2024-02-28T10:48:46;100406.44;;;9.90;67.01
81931;BME280;71395;43.488;1.472;2024-02-28T10:51:15;100400.19;;;10.01;68.12
81931;BME280;71395;43.488;1.472;2024-02-28T10:53:41;100399.53;;;10.10;66.83
81931;BME280;71395;43.488;1.472;2024-02-28T10:56:11;100398.66;;;10.05;66.00
81931;BME280;71395;43.488;1.472;2024-02-28T10:58:42;100397.66;;;10.11;66.96
81931;BME280;71395;43.488;1.472;2024-02-28T11:01:12;100384.75;;;10.08;67.06
81931;BME280;71395;43.488;1.472;2024-02-28T11:03:40;100377.63;;;9.97;67.14
81931;BME280;71395;43.488;1.472;2024-02-28T11:06:18;100390.44;;;9.95;66.21
81931;BME280;71395;43.488;1.472;2024-02-28T11:08:47;100399.94;;;9.86;65.53
81931;BME280;71395;43.488;1.472;2024-02-28T11:11:14;100407.16;;;9.85;66.07
81931;BME280;71395;43.488;1.472;2024-02-28T11:13:54;100414.94;;;9.87;66.70
81931;BME280;71395;43.488;1.472;2024-02-28T11:16:30;100395.94;;;9.88;66.00
81931;BME280;71395;43.488;1.472;2024-02-28T11:18:56;100401.16;;;9.95;67.37
81931;BME280;71395;43.488;1.472;2024-02-28T11:21:26;100383.22;;;9.95;66.04
81931;BME280;71395;43.488;1.472;2024-02-28T11:24:01;100394.66;;;10.07;66.31
81931;BME280;71395;43.488;1.472;2024-02-28T11:26:27;100386.63;;;10.07;65.94
81931;BME280;71395;43.488;1.472;2024-02-28T11:28:56;100350.91;;;10.02;65.34
81931;BME280;71395;43.488;1.472;2024-02-28T11:31:22;100397.81;;;10.21;65.77
81931;BME280;71395;43.488;1.472;2024-02-28T11:33:47;100393.25;;;10.22;64.85
81931;BME280;71395;43.488;1.472;2024-02-28T11:36:13;100389.88;;;10.26;65.64
81931;BME280;71395;43.488;1.472;2024-02-28T11:38:40;100379.88;;;10.22;63.91
81931;BME280;71395;43.488;1.472;2024-02-28T11:41:07;100394.97;;;10.28;64.63
81931;BME280;71395;43.488;1.472;2024-02-28T11:43:33;100389.78;;;10.21;64.63
81931;BME280;71395;43.488;1.472;2024-02-28T11:46:00;100397.50;;;10.34;63.88
81931;BME280;71395;43.488;1.472;2024-02-28T11:48:26;100377.09;;;10.33;63.86
81931;BME280;71395;43.488;1.472;2024-02-28T11:50:56;100376.16;;;10.40;63.31
81931;BME280;71395;43.488;1.472;2024-02-28T11:53:22;100337.97;;;10.32;63.04
81931;BME280;71395;43.488;1.472;2024-02-28T11:55:48;100360.69;;;10.47;64.05
81931;BME280;71395;43.488;1.472;2024-02-28T11:58:14;100358.88;;;10.52;64.01
81931;BME280;71395;43.488;1.472;2024-02-28T12:04:03;100374.16;;;10.52;63.54
81931;BME280;71395;43.488;1.472;2024-02-28T12:06:30;100369.28;;;10.49;62.82
81931;BME280;71395;43.488;1.472;2024-02-28T12:08:56;100374.69;;;10.54;61.97
81931;BME280;71395;43.488;1.472;2024-02-28T12:11:50;100378.03;;;10.61;61.28
81931;BME280;71395;43.488;1.472;2024-02-28T12:14:16;100365.09;;;10.58;62.68
81931;BME280;71395;43.488;1.472;2024-02-28T12:20:04;100347.94;;;10.59;62.35
81931;BME280;71395;43.488;1.472;2024-02-28T12:22:31;100367.44;;;10.71;61.90
81931;BME280;71395;43.488;1.472;2024-02-28T12:24:57;100350.47;;;10.66;60.95
81931;BME280;71395;43.488;1.472;2024-02-28T12:27:23;100347.03;;;10.70;60.62
81931;BME280;71395;43.488;1.472;2024-02-28T12:29:48;100342.75;;;10.69;60.32
81931;BME280;71395;43.488;1.472;2024-02-28T12:32:20;100358.00;;;10.69;59.99
81931;BME280;71395;43.488;1.472;2024-02-28T12:34:46;100351.09;;;10.73;61.12
81931;BME280;71395;43.488;1.472;2024-02-28T12:37:12;100338.47;;;10.73;60.12
81931;BME280;71395;43.488;1.472;2024-02-28T12:39:37;100346.34;;;10.80;60.13
81931;BME280;71395;43.488;1.472;2024-02-28T12:42:03;100355.31;;;10.91;60.63
81931;BME280;71395;43.488;1.472;2024-02-28T12:44:29;100340.84;;;10.92;60.42
81931;BME280;71395;43.488;1.472;2024-02-28T12:46:55;100337.41;;;10.96;61.22
81931;BME280;71395;43.488;1.472;2024-02-28T12:49:21;100335.09;;;11.05;60.55
81931;BME280;71395;43.488;1.472;2024-02-28T12:51:46;100344.50;;;11.07;60.66
81931;BME280;71395;43.488;1.472;2024-02-28T12:57:44;100333.91;;;10.96;60.07
81931;BME280;71395;43.488;1.472;2024-02-28T13:03:33;100336.22;;;11.09;58.41
81931;BME280;71395;43.488;1.472;2024-02-28T13:09:26;100328.00;;;11.21;59.23
81931;BME280;71395;43.488;1.472;2024-02-28T13:11:52;100337.13;;;11.20;60.61
81931;BME280;71395;43.488;1.472;2024-02-28T13:14:19;100328.38;;;11.29;59.05